Atkins, Arkansas
Current Conditions -  °F | °C
As of 2:53 PM on Friday 19 Dec 2014 (Local Time) from KRUE Reporting Station
Overcast Overcast  
Wind Chill: 42°   Ceiling: 1900
Heat Index: 45°   Visibility: 10mi
Dew Point: 37°   Wind: 6mph
Humidity: 74%   Direction: 70°ENE
Pressure: 30.18"   Gusts: NA
Location:  35.25°N, 92.94°W
Report Text: KRUE 192053Z AUTO 07005KT 10SM OVC019 07/03 A3018 RMK AO2 SLP219 T00720028 56020
Loading
Personal Weather Stations






























Interactive Weather Map New forecast layout! Learn more

10-Day Weather Forecast

Advertisements
Track Severe Weather on mobile